sensor_id;sensor_type;location;lat;lon;timestamp;pressure;altitude;pressure_sealevel;temperature;humidity
78667;BME280;67983;59.830;30.198;2023-04-25T00:02:06;100553.38;;;13.61;55.64
78667;BME280;67983;59.830;30.198;2023-04-25T00:04:36;100552.53;;;13.61;55.35
78667;BME280;67983;59.830;30.198;2023-04-25T00:07:04;100557.13;;;13.59;55.39
78667;BME280;67983;59.830;30.198;2023-04-25T00:09:34;100545.75;;;13.57;55.15
78667;BME280;67983;59.830;30.198;2023-04-25T00:12:02;100549.53;;;13.54;55.08
78667;BME280;67983;59.830;30.198;2023-04-25T00:14:31;100548.81;;;13.52;55.08
78667;BME280;67983;59.830;30.198;2023-04-25T00:16:59;100551.72;;;13.49;54.91
78667;BME280;67983;59.830;30.198;2023-04-25T00:19:29;100542.03;;;13.48;55.12
78667;BME280;67983;59.830;30.198;2023-04-25T00:21:59;100548.09;;;13.50;54.81
78667;BME280;67983;59.830;30.198;2023-04-25T00:24:27;100542.88;;;13.49;54.64
78667;BME280;67983;59.830;30.198;2023-04-25T00:26:56;100539.47;;;13.46;54.66
78667;BME280;67983;59.830;30.198;2023-04-25T00:29:22;100544.91;;;13.45;54.68
78667;BME280;67983;59.830;30.198;2023-04-25T00:31:49;100538.88;;;13.43;54.60
78667;BME280;67983;59.830;30.198;2023-04-25T00:34:18;100546.03;;;13.42;54.69
78667;BME280;67983;59.830;30.198;2023-04-25T00:36:45;100539.00;;;13.41;54.66
78667;BME280;67983;59.830;30.198;2023-04-25T00:39:15;100542.63;;;13.40;54.61
78667;BME280;67983;59.830;30.198;2023-04-25T00:41:42;100535.59;;;13.39;54.62
78667;BME280;67983;59.830;30.198;2023-04-25T00:44:11;100544.84;;;13.35;54.38
78667;BME280;67983;59.830;30.198;2023-04-25T00:47:04;100540.81;;;13.30;54.49
78667;BME280;67983;59.830;30.198;2023-04-25T00:49:33;100536.59;;;13.27;54.56
78667;BME280;67983;59.830;30.198;2023-04-25T00:52:03;100545.69;;;13.25;54.26
78667;BME280;67983;59.830;30.198;2023-04-25T00:54:32;100546.91;;;13.21;54.19
78667;BME280;67983;59.830;30.198;2023-04-25T00:56:59;100544.25;;;13.21;54.33
78667;BME280;67983;59.830;30.198;2023-04-25T00:59:27;100547.03;;;13.19;54.22
78667;BME280;67983;59.830;30.198;2023-04-25T01:01:55;100546.19;;;13.19;53.99
78667;BME280;67983;59.830;30.198;2023-04-25T01:04:24;100540.06;;;13.16;54.11
78667;BME280;67983;59.830;30.198;2023-04-25T01:06:56;100538.50;;;13.14;53.78
78667;BME280;67983;59.830;30.198;2023-04-25T01:09:23;100543.72;;;13.15;53.48
78667;BME280;67983;59.830;30.198;2023-04-25T01:11:52;100540.56;;;13.10;53.38
78667;BME280;67983;59.830;30.198;2023-04-25T01:14:19;100546.16;;;13.07;53.14
78667;BME280;67983;59.830;30.198;2023-04-25T01:16:46;100545.56;;;13.04;53.32
78667;BME280;67983;59.830;30.198;2023-04-25T01:19:16;100540.34;;;13.02;53.43
78667;BME280;67983;59.830;30.198;2023-04-25T01:21:47;100541.53;;;12.98;53.80
78667;BME280;67983;59.830;30.198;2023-04-25T01:24:17;100539.13;;;12.95;53.83
78667;BME280;67983;59.830;30.198;2023-04-25T01:26:44;100544.31;;;12.97;53.52
78667;BME280;67983;59.830;30.198;2023-04-25T01:29:23;100534.19;;;13.02;53.36
78667;BME280;67983;59.830;30.198;2023-04-25T01:31:51;100537.69;;;13.02;52.66
78667;BME280;67983;59.830;30.198;2023-04-25T01:34:19;100540.44;;;13.01;53.17
78667;BME280;67983;59.830;30.198;2023-04-25T01:36:49;100543.34;;;12.98;52.89
78667;BME280;67983;59.830;30.198;2023-04-25T01:39:16;100541.78;;;12.95;52.89
78667;BME280;67983;59.830;30.198;2023-04-25T01:41:44;100543.84;;;12.92;52.80
78667;BME280;67983;59.830;30.198;2023-04-25T01:44:12;100543.00;;;12.91;52.75
78667;BME280;67983;59.830;30.198;2023-04-25T01:46:39;100536.81;;;12.91;52.48
78667;BME280;67983;59.830;30.198;2023-04-25T01:49:11;100542.03;;;12.92;51.78
78667;BME280;67983;59.830;30.198;2023-04-25T01:51:39;100541.78;;;12.95;51.73
78667;BME280;67983;59.830;30.198;2023-04-25T01:54:08;100533.66;;;12.97;51.06
78667;BME280;67983;59.830;30.198;2023-04-25T01:56:39;100534.78;;;13.05;50.91
78667;BME280;67983;59.830;30.198;2023-04-25T01:59:09;100543.72;;;13.15;50.38
78667;BME280;67983;59.830;30.198;2023-04-25T02:01:58;100532.75;;;13.20;50.09
78667;BME280;67983;59.830;30.198;2023-04-25T02:04:30;100541.78;;;13.29;49.85
78667;BME280;67983;59.830;30.198;2023-04-25T02:06:57;100541.53;;;13.32;49.40
78667;BME280;67983;59.830;30.198;2023-04-25T02:09:33;100539.63;;;13.34;49.17
78667;BME280;67983;59.830;30.198;2023-04-25T02:12:07;100540.34;;;13.36;48.97
78667;BME280;67983;59.830;30.198;2023-04-25T02:15:23;100541.31;;;13.35;48.56
78667;BME280;67983;59.830;30.198;2023-04-25T02:17:55;100537.69;;;13.36;48.21
78667;BME280;67983;59.830;30.198;2023-04-25T02:20:24;100536.84;;;13.35;48.35
78667;BME280;67983;59.830;30.198;2023-04-25T02:22:55;100530.16;;;13.41;48.07
78667;BME280;67983;59.830;30.198;2023-04-25T02:25:26;100532.09;;;13.50;47.80
78667;BME280;67983;59.830;30.198;2023-04-25T02:27:52;100540.56;;;13.55;46.71
78667;BME280;67983;59.830;30.198;2023-04-25T02:30:23;100540.41;;;13.57;47.05
78667;BME280;67983;59.830;30.198;2023-04-25T02:32:50;100537.75;;;13.57;46.52
78667;BME280;67983;59.830;30.198;2023-04-25T02:35:19;100541.25;;;13.57;46.24
78667;BME280;67983;59.830;30.198;2023-04-25T02:37:46;100543.69;;;13.60;46.18
78667;BME280;67983;59.830;30.198;2023-04-25T02:40:13;100547.06;;;13.62;45.81
78667;BME280;67983;59.830;30.198;2023-04-25T02:42:42;100541.72;;;13.62;45.53
78667;BME280;67983;59.830;30.198;2023-04-25T02:45:13;100540.78;;;13.63;45.17
78667;BME280;67983;59.830;30.198;2023-04-25T02:47:43;100542.34;;;13.66;45.12
78667;BME280;67983;59.830;30.198;2023-04-25T02:50:11;100540.41;;;13.68;44.94
78667;BME280;67983;59.830;30.198;2023-04-25T02:52:41;100540.13;;;13.71;44.67
78667;BME280;67983;59.830;30.198;2023-04-25T02:55:15;100547.88;;;13.74;44.31
78667;BME280;67983;59.830;30.198;2023-04-25T02:57:44;100539.63;;;13.77;44.23
78667;BME280;67983;59.830;30.198;2023-04-25T03:00:20;100547.72;;;13.87;44.13
78667;BME280;67983;59.830;30.198;2023-04-25T03:02:50;100536.09;;;13.88;43.74
78667;BME280;67983;59.830;30.198;2023-04-25T03:05:17;100544.66;;;13.91;43.59
78667;BME280;67983;59.830;30.198;2023-04-25T03:07:45;100546.50;;;13.91;43.52
78667;BME280;67983;59.830;30.198;2023-04-25T03:10:13;100549.28;;;13.89;43.41
78667;BME280;67983;59.830;30.198;2023-04-25T03:12:41;100542.97;;;13.90;43.32
78667;BME280;67983;59.830;30.198;2023-04-25T03:15:09;100548.06;;;13.93;43.32
78667;BME280;67983;59.830;30.198;2023-04-25T03:17:36;100551.09;;;14.00;43.15
78667;BME280;67983;59.830;30.198;2023-04-25T03:20:04;100547.88;;;14.06;43.29
78667;BME280;67983;59.830;30.198;2023-04-25T03:22:34;100532.59;;;14.08;43.10
78667;BME280;67983;59.830;30.198;2023-04-25T03:25:02;100541.78;;;14.15;42.81
78667;BME280;67983;59.830;30.198;2023-04-25T03:27:29;100541.53;;;14.18;42.63
78667;BME280;67983;59.830;30.198;2023-04-25T03:29:58;100541.28;;;14.21;42.71
78667;BME280;67983;59.830;30.198;2023-04-25T03:32:26;100546.97;;;14.28;42.40
78667;BME280;67983;59.830;30.198;2023-04-25T03:34:54;100540.50;;;14.30;42.30
78667;BME280;67983;59.830;30.198;2023-04-25T03:37:22;100538.94;;;14.28;42.23
78667;BME280;67983;59.830;30.198;2023-04-25T03:39:56;100552.16;;;14.29;42.23
78667;BME280;67983;59.830;30.198;2023-04-25T03:42:28;100548.97;;;14.35;42.00
78667;BME280;67983;59.830;30.198;2023-04-25T03:44:57;100555.25;;;14.46;42.00
78667;BME280;67983;59.830;30.198;2023-04-25T03:47:23;100556.69;;;14.50;41.84
78667;BME280;67983;59.830;30.198;2023-04-25T03:49:53;100550.94;;;14.54;41.65
78667;BME280;67983;59.830;30.198;2023-04-25T03:52:22;100556.06;;;14.57;41.31
78667;BME280;67983;59.830;30.198;2023-04-25T03:54:49;100548.63;;;14.61;41.22
78667;BME280;67983;59.830;30.198;2023-04-25T03:57:18;100552.72;;;14.65;41.16
78667;BME280;67983;59.830;30.198;2023-04-25T03:59:46;100553.56;;;14.65;41.00
78667;BME280;67983;59.830;30.198;2023-04-25T04:02:14;100553.41;;;14.67;41.16
78667;BME280;67983;59.830;30.198;2023-04-25T04:04:42;100547.44;;;14.75;40.79
78667;BME280;67983;59.830;30.198;2023-04-25T04:07:12;100547.88;;;14.80;40.75
78667;BME280;67983;59.830;30.198;2023-04-25T04:09:41;100552.09;;;14.82;40.58
78667;BME280;67983;59.830;30.198;2023-04-25T04:12:13;100555.94;;;14.89;40.60
78667;BME280;67983;59.830;30.198;2023-04-25T04:14:46;100544.44;;;14.99;40.62
78667;BME280;67983;59.830;30.198;2023-04-25T04:17:13;100553.78;;;15.04;40.83
78667;BME280;67983;59.830;30.198;2023-04-25T04:19:40;100552.09;;;15.13;40.63
78667;BME280;67983;59.830;30.198;2023-04-25T04:22:18;100537.75;;;15.14;40.51
78667;BME280;67983;59.830;30.198;2023-04-25T04:24:48;100563.00;;;15.31;40.12
78667;BME280;67983;59.830;30.198;2023-04-25T04:27:21;100552.22;;;15.42;39.97
78667;BME280;67983;59.830;30.198;2023-04-25T04:30:08;100550.97;;;15.55;39.38
78667;BME280;67983;59.830;30.198;2023-04-25T04:32:51;100553.44;;;15.68;39.07
78667;BME280;67983;59.830;30.198;2023-04-25T04:35:18;100556.84;;;15.80;39.16
78667;BME280;67983;59.830;30.198;2023-04-25T04:37:48;100551.63;;;15.88;39.10
78667;BME280;67983;59.830;30.198;2023-04-25T04:40:19;100552.19;;;16.01;38.79
78667;BME280;67983;59.830;30.198;2023-04-25T04:43:09;100555.44;;;16.14;38.78
78667;BME280;67983;59.830;30.198;2023-04-25T04:46:04;100552.63;;;16.26;38.31
78667;BME280;67983;59.830;30.198;2023-04-25T04:48:40;100552.19;;;16.40;38.29
78667;BME280;67983;59.830;30.198;2023-04-25T04:51:14;100556.53;;;16.51;37.84
78667;BME280;67983;59.830;30.198;2023-04-25T04:53:55;100551.47;;;16.57;37.41
78667;BME280;67983;59.830;30.198;2023-04-25T04:56:45;100545.22;;;16.66;37.04
78667;BME280;67983;59.830;30.198;2023-04-25T04:59:28;100549.31;;;16.80;36.99
78667;BME280;67983;59.830;30.198;2023-04-25T05:02:06;100555.19;;;16.93;36.54
78667;BME280;67983;59.830;30.198;2023-04-25T05:04:48;100555.28;;;17.11;36.20
78667;BME280;67983;59.830;30.198;2023-04-25T05:07:36;100559.44;;;17.33;36.01
78667;BME280;67983;59.830;30.198;2023-04-25T05:10:31;100554.00;;;17.43;35.69
78667;BME280;67983;59.830;30.198;2023-04-25T05:13:22;100552.50;;;17.58;35.62
78667;BME280;67983;59.830;30.198;2023-04-25T05:16:13;100548.66;;;17.70;35.14
78667;BME280;67983;59.830;30.198;2023-04-25T05:18:57;100555.50;;;17.82;34.72
78667;BME280;67983;59.830;30.198;2023-04-25T05:21:45;100556.81;;;17.96;34.71
78667;BME280;67983;59.830;30.198;2023-04-25T05:24:26;100561.66;;;18.10;34.50
78667;BME280;67983;59.830;30.198;2023-04-25T05:27:11;100555.06;;;18.23;34.56
78667;BME280;67983;59.830;30.198;2023-04-25T05:29:59;100553.78;;;18.35;34.25
78667;BME280;67983;59.830;30.198;2023-04-25T05:32:31;100552.53;;;18.47;33.69
78667;BME280;67983;59.830;30.198;2023-04-25T05:34:59;100552.47;;;18.57;33.46
78667;BME280;67983;59.830;30.198;2023-04-25T05:37:31;100556.53;;;18.61;33.58
78667;BME280;67983;59.830;30.198;2023-04-25T05:40:10;100553.38;;;18.65;33.63
78667;BME280;67983;59.830;30.198;2023-04-25T05:42:51;100550.38;;;18.68;33.42
78667;BME280;67983;59.830;30.198;2023-04-25T05:45:46;100554.16;;;18.84;33.30
78667;BME280;67983;59.830;30.198;2023-04-25T05:48:31;100553.38;;;18.91;33.18
78667;BME280;67983;59.830;30.198;2023-04-25T05:51:22;100541.63;;;18.92;32.95
78667;BME280;67983;59.830;30.198;2023-04-25T05:53:59;100550.91;;;18.98;33.19
78667;BME280;67983;59.830;30.198;2023-04-25T05:56:29;100542.53;;;19.01;33.02
78667;BME280;67983;59.830;30.198;2023-04-25T05:58:57;100553.81;;;19.04;32.88
78667;BME280;67983;59.830;30.198;2023-04-25T06:01:25;100544.41;;;19.08;33.13
78667;BME280;67983;59.830;30.198;2023-04-25T06:03:53;100550.78;;;19.07;32.88
78667;BME280;67983;59.830;30.198;2023-04-25T06:06:20;100548.25;;;19.06;33.05
78667;BME280;67983;59.830;30.198;2023-04-25T06:08:49;100544.84;;;18.96;32.88
78667;BME280;67983;59.830;30.198;2023-04-25T06:11:17;100552.22;;;18.94;33.09
78667;BME280;67983;59.830;30.198;2023-04-25T06:13:44;100540.63;;;18.93;32.77
78667;BME280;67983;59.830;30.198;2023-04-25T06:16:13;100557.97;;;18.99;32.94
78667;BME280;67983;59.830;30.198;2023-04-25T06:18:43;100550.44;;;19.02;32.77
78667;BME280;67983;59.830;30.198;2023-04-25T06:21:11;100544.72;;;19.05;32.71
78667;BME280;67983;59.830;30.198;2023-04-25T06:23:38;100548.28;;;19.14;32.82
78667;BME280;67983;59.830;30.198;2023-04-25T06:26:10;100541.09;;;19.15;32.54
78667;BME280;67983;59.830;30.198;2023-04-25T06:28:40;100545.25;;;19.09;32.68
78667;BME280;67983;59.830;30.198;2023-04-25T06:31:12;100548.44;;;19.13;32.71
78667;BME280;67983;59.830;30.198;2023-04-25T06:33:42;100544.31;;;19.26;32.65
78667;BME280;67983;59.830;30.198;2023-04-25T06:36:09;100535.97;;;19.37;32.24
78667;BME280;67983;59.830;30.198;2023-04-25T06:38:37;100540.38;;;19.47;32.03
78667;BME280;67983;59.830;30.198;2023-04-25T06:41:05;100534.69;;;19.58;31.83
78667;BME280;67983;59.830;30.198;2023-04-25T06:43:36;100537.59;;;19.73;31.05
78667;BME280;67983;59.830;30.198;2023-04-25T06:46:36;100532.41;;;19.87;30.31
78667;BME280;67983;59.830;30.198;2023-04-25T06:49:05;100530.94;;;20.01;30.10
78667;BME280;67983;59.830;30.198;2023-04-25T06:51:35;100527.22;;;20.18;29.54
78667;BME280;67983;59.830;30.198;2023-04-25T06:54:07;100542.06;;;20.39;29.50
78667;BME280;67983;59.830;30.198;2023-04-25T06:56:40;100533.66;;;20.50;28.78
78667;BME280;67983;59.830;30.198;2023-04-25T06:59:13;100538.03;;;20.59;28.34
78667;BME280;67983;59.830;30.198;2023-04-25T07:01:43;100534.47;;;20.67;28.01
78667;BME280;67983;59.830;30.198;2023-04-25T07:04:24;100530.25;;;20.72;27.59
78667;BME280;67983;59.830;30.198;2023-04-25T07:06:54;100528.38;;;20.81;27.35
78667;BME280;67983;59.830;30.198;2023-04-25T07:09:29;100535.09;;;20.93;27.64
78667;BME280;67983;59.830;30.198;2023-04-25T07:11:59;100533.03;;;21.03;26.91
78667;BME280;67983;59.830;30.198;2023-04-25T07:14:29;100531.50;;;21.09;26.48
78667;BME280;67983;59.830;30.198;2023-04-25T07:17:00;100538.56;;;21.18;26.39
78667;BME280;67983;59.830;30.198;2023-04-25T07:19:54;100539.22;;;21.28;26.08
78667;BME280;67983;59.830;30.198;2023-04-25T07:22:22;100542.19;;;21.41;25.64
78667;BME280;67983;59.830;30.198;2023-04-25T07:24:50;100540.13;;;21.52;25.01
78667;BME280;67983;59.830;30.198;2023-04-25T07:27:20;100537.56;;;21.58;24.60
78667;BME280;67983;59.830;30.198;2023-04-25T07:30:13;100525.56;;;21.61;24.28
78667;BME280;67983;59.830;30.198;2023-04-25T07:32:42;100532.06;;;21.74;24.13
78667;BME280;67983;59.830;30.198;2023-04-25T07:35:09;100540.31;;;21.81;23.43
78667;BME280;67983;59.830;30.198;2023-04-25T07:37:44;100542.63;;;21.84;23.22
78667;BME280;67983;59.830;30.198;2023-04-25T07:40:18;100533.16;;;21.88;23.25
78667;BME280;67983;59.830;30.198;2023-04-25T07:42:52;100537.19;;;21.92;22.78
78667;BME280;67983;59.830;30.198;2023-04-25T07:45:31;100535.81;;;21.96;22.74
78667;BME280;67983;59.830;30.198;2023-04-25T07:48:00;100526.78;;;22.04;22.45
78667;BME280;67983;59.830;30.198;2023-04-25T07:50:29;100534.78;;;22.05;22.42
78667;BME280;67983;59.830;30.198;2023-04-25T07:52:58;100538.59;;;22.11;22.33
78667;BME280;67983;59.830;30.198;2023-04-25T07:55:30;100526.22;;;22.17;21.91
78667;BME280;67983;59.830;30.198;2023-04-25T07:58:06;100529.91;;;22.24;21.65
78667;BME280;67983;59.830;30.198;2023-04-25T08:00:36;100534.28;;;22.25;21.18
78667;BME280;67983;59.830;30.198;2023-04-25T08:03:23;100537.28;;;22.30;21.17
78667;BME280;67983;59.830;30.198;2023-04-25T08:05:50;100536.72;;;22.34;21.10
78667;BME280;67983;59.830;30.198;2023-04-25T08:08:18;100536.47;;;22.44;21.00
78667;BME280;67983;59.830;30.198;2023-04-25T08:10:48;100542.47;;;22.54;21.11
78667;BME280;67983;59.830;30.198;2023-04-25T08:13:16;100532.78;;;22.60;21.14
78667;BME280;67983;59.830;30.198;2023-04-25T08:15:44;100539.63;;;22.71;21.22
78667;BME280;67983;59.830;30.198;2023-04-25T08:18:11;100539.25;;;22.74;21.05
78667;BME280;67983;59.830;30.198;2023-04-25T08:20:41;100555.09;;;22.77;20.75
78667;BME280;67983;59.830;30.198;2023-04-25T08:23:10;100544.09;;;22.78;20.30
78667;BME280;67983;59.830;30.198;2023-04-25T08:26:02;100537.16;;;22.84;20.34
78667;BME280;67983;59.830;30.198;2023-04-25T08:28:32;100537.88;;;22.92;20.47
78667;BME280;67983;59.830;30.198;2023-04-25T08:31:03;100531.75;;;22.99;20.68
78667;BME280;67983;59.830;30.198;2023-04-25T08:33:37;100539.75;;;23.07;19.97
78667;BME280;67983;59.830;30.198;2023-04-25T08:36:21;100554.22;;;22.99;19.06
78667;BME280;67983;59.830;30.198;2023-04-25T08:38:49;100540.13;;;22.89;18.46
78667;BME280;67983;59.830;30.198;2023-04-25T08:41:19;100527.16;;;22.84;18.70
78667;BME280;67983;59.830;30.198;2023-04-25T08:43:49;100537.41;;;22.89;18.97
78667;BME280;67983;59.830;30.198;2023-04-25T08:46:18;100545.72;;;23.02;18.79
78667;BME280;67983;59.830;30.198;2023-04-25T08:49:12;100559.06;;;23.04;18.04
78667;BME280;67983;59.830;30.198;2023-04-25T08:51:45;100531.25;;;22.95;18.08
78667;BME280;67983;59.830;30.198;2023-04-25T08:54:20;100545.34;;;22.90;18.37
78667;BME280;67983;59.830;30.198;2023-04-25T08:56:52;100532.28;;;22.94;18.15
78667;BME280;67983;59.830;30.198;2023-04-25T08:59:21;100544.25;;;23.00;17.76
78667;BME280;67983;59.830;30.198;2023-04-25T09:01:50;100536.59;;;23.03;18.00
78667;BME280;67983;59.830;30.198;2023-04-25T09:04:21;100526.97;;;23.15;18.30
78667;BME280;67983;59.830;30.198;2023-04-25T09:06:53;100546.25;;;23.27;18.33
78667;BME280;67983;59.830;30.198;2023-04-25T09:09:22;100523.41;;;23.30;17.72
78667;BME280;67983;59.830;30.198;2023-04-25T09:11:50;100528.84;;;23.30;17.98
78667;BME280;67983;59.830;30.198;2023-04-25T09:14:18;100537.59;;;23.32;18.06
78667;BME280;67983;59.830;30.198;2023-04-25T09:16:59;100534.06;;;23.31;17.94
78667;BME280;67983;59.830;30.198;2023-04-25T09:19:39;100523.56;;;23.43;18.02
78667;BME280;67983;59.830;30.198;2023-04-25T09:22:15;100520.56;;;23.52;17.89
78667;BME280;67983;59.830;30.198;2023-04-25T09:24:49;100522.13;;;23.76;18.07
78667;BME280;67983;59.830;30.198;2023-04-25T09:27:19;100538.19;;;23.99;17.92
78667;BME280;67983;59.830;30.198;2023-04-25T09:29:57;100518.53;;;24.12;17.83
78667;BME280;67983;59.830;30.198;2023-04-25T09:32:32;100519.84;;;24.37;17.72
78667;BME280;67983;59.830;30.198;2023-04-25T09:35:00;100514.38;;;24.65;17.35
78667;BME280;67983;59.830;30.198;2023-04-25T09:37:30;100526.38;;;24.78;17.03
78667;BME280;67983;59.830;30.198;2023-04-25T09:40:19;100526.44;;;24.84;16.75
78667;BME280;67983;59.830;30.198;2023-04-25T09:42:56;100525.84;;;24.95;16.22
78667;BME280;67983;59.830;30.198;2023-04-25T09:45:29;100527.38;;;24.98;16.41
78667;BME280;67983;59.830;30.198;2023-04-25T09:48:03;100532.72;;;25.19;16.29
78667;BME280;67983;59.830;30.198;2023-04-25T09:50:46;100540.38;;;25.50;16.33
78667;BME280;67983;59.830;30.198;2023-04-25T09:53:31;100537.31;;;25.60;16.71
78667;BME280;67983;59.830;30.198;2023-04-25T09:56:12;100537.59;;;25.30;17.01
78667;BME280;67983;59.830;30.198;2023-04-25T09:58:40;100533.13;;;24.88;17.18
78667;BME280;67983;59.830;30.198;2023-04-25T10:01:09;100530.44;;;24.60;17.95
78667;BME280;67983;59.830;30.198;2023-04-25T10:03:50;100537.09;;;24.58;18.34
78667;BME280;67983;59.830;30.198;2023-04-25T10:06:38;100547.16;;;24.64;17.97
78667;BME280;67983;59.830;30.198;2023-04-25T10:09:09;100531.88;;;25.19;17.40
78667;BME280;67983;59.830;30.198;2023-04-25T10:11:38;100530.75;;;26.09;16.42
78667;BME280;67983;59.830;30.198;2023-04-25T10:14:06;100536.00;;;26.83;16.11
78667;BME280;67983;59.830;30.198;2023-04-25T10:16:33;100534.34;;;27.60;15.64
78667;BME280;67983;59.830;30.198;2023-04-25T10:19:02;100549.84;;;28.04;14.74
78667;BME280;67983;59.830;30.198;2023-04-25T10:21:31;100553.81;;;27.70;14.85
78667;BME280;67983;59.830;30.198;2023-04-25T10:24:01;100540.72;;;27.34;15.07
78667;BME280;67983;59.830;30.198;2023-04-25T10:26:30;100540.50;;;27.42;15.23
78667;BME280;67983;59.830;30.198;2023-04-25T10:29:00;100547.28;;;28.09;14.53
78667;BME280;67983;59.830;30.198;2023-04-25T10:31:29;100547.84;;;28.18;13.73
78667;BME280;67983;59.830;30.198;2023-04-25T10:33:57;100543.34;;;27.67;13.97
78667;BME280;67983;59.830;30.198;2023-04-25T10:36:24;100547.66;;;27.23;14.93
78667;BME280;67983;59.830;30.198;2023-04-25T10:38:54;100550.25;;;27.63;14.78
78667;BME280;67983;59.830;30.198;2023-04-25T10:41:23;100544.16;;;28.62;14.48
78667;BME280;67983;59.830;30.198;2023-04-25T10:43:59;100541.47;;;29.05;14.09
78667;BME280;67983;59.830;30.198;2023-04-25T10:46:29;100551.41;;;30.45;12.39
78667;BME280;67983;59.830;30.198;2023-04-25T10:48:58;100554.06;;;30.63;11.92
78667;BME280;67983;59.830;30.198;2023-04-25T10:51:26;100551.44;;;31.03;12.06
78667;BME280;67983;59.830;30.198;2023-04-25T10:53:57;100551.44;;;32.24;11.79
78667;BME280;67983;59.830;30.198;2023-04-25T10:56:29;100549.91;;;32.28;11.41
78667;BME280;67983;59.830;30.198;2023-04-25T10:59:05;100556.63;;;31.51;12.25
78667;BME280;67983;59.830;30.198;2023-04-25T11:01:39;100554.06;;;30.63;11.89
78667;BME280;67983;59.830;30.198;2023-04-25T11:04:34;100557.66;;;29.43;12.54
78667;BME280;67983;59.830;30.198;2023-04-25T11:07:07;100547.97;;;28.61;12.96
78667;BME280;67983;59.830;30.198;2023-04-25T11:09:39;100559.94;;;27.97;13.17
78667;BME280;67983;59.830;30.198;2023-04-25T11:12:08;100537.66;;;28.63;13.34
78667;BME280;67983;59.830;30.198;2023-04-25T11:14:40;100542.25;;;29.49;12.86
78667;BME280;67983;59.830;30.198;2023-04-25T11:17:07;100554.50;;;29.40;13.25
78667;BME280;67983;59.830;30.198;2023-04-25T11:19:36;100556.72;;;29.98;12.67
78667;BME280;67983;59.830;30.198;2023-04-25T11:22:03;100550.19;;;29.69;12.62
78667;BME280;67983;59.830;30.198;2023-04-25T11:24:32;100554.03;;;30.51;11.84
78667;BME280;67983;59.830;30.198;2023-04-25T11:27:01;100549.44;;;31.10;12.03
78667;BME280;67983;59.830;30.198;2023-04-25T11:29:30;100562.41;;;32.07;11.42
78667;BME280;67983;59.830;30.198;2023-04-25T11:32:03;100565.84;;;31.86;11.19
78667;BME280;67983;59.830;30.198;2023-04-25T11:34:31;100558.63;;;31.28;11.48
78667;BME280;67983;59.830;30.198;2023-04-25T11:36:59;100556.09;;;31.14;11.36
78667;BME280;67983;59.830;30.198;2023-04-25T11:39:28;100539.94;;;31.93;11.14
78667;BME280;67983;59.830;30.198;2023-04-25T11:41:55;100542.50;;;32.79;10.47
78667;BME280;67983;59.830;30.198;2023-04-25T11:44:22;100555.03;;;34.23;10.13
78667;BME280;67983;59.830;30.198;2023-04-25T11:46:50;100557.53;;;35.36;9.49
78667;BME280;67983;59.830;30.198;2023-04-25T11:49:18;100555.28;;;35.90;9.33
78667;BME280;67983;59.830;30.198;2023-04-25T11:51:46;100549.75;;;34.80;9.17
78667;BME280;67983;59.830;30.198;2023-04-25T11:54:15;100553.09;;;33.25;10.28
78667;BME280;67983;59.830;30.198;2023-04-25T11:56:48;100534.63;;;32.03;10.67
78667;BME280;67983;59.830;30.198;2023-04-25T11:59:39;100544.16;;;31.09;11.28
78667;BME280;67983;59.830;30.198;2023-04-25T12:02:07;100541.88;;;30.47;11.97
78667;BME280;67983;59.830;30.198;2023-04-25T12:04:36;100533.00;;;30.10;12.31
78667;BME280;67983;59.830;30.198;2023-04-25T12:07:04;100530.94;;;30.59;12.11
78667;BME280;67983;59.830;30.198;2023-04-25T12:09:33;100531.81;;;30.71;12.01
78667;BME280;67983;59.830;30.198;2023-04-25T12:12:04;100536.19;;;30.60;12.02
78667;BME280;67983;59.830;30.198;2023-04-25T12:14:33;100526.88;;;30.38;12.11
78667;BME280;67983;59.830;30.198;2023-04-25T12:17:02;100524.13;;;29.96;12.27
78667;BME280;67983;59.830;30.198;2023-04-25T12:19:32;100529.31;;;29.38;12.68
78667;BME280;67983;59.830;30.198;2023-04-25T12:22:02;100526.69;;;28.70;12.75
78667;BME280;67983;59.830;30.198;2023-04-25T12:24:29;100526.13;;;28.05;13.18
78667;BME280;67983;59.830;30.198;2023-04-25T12:27:01;100524.28;;;27.98;13.50
78667;BME280;67983;59.830;30.198;2023-04-25T12:29:30;100529.69;;;29.05;13.35
78667;BME280;67983;59.830;30.198;2023-04-25T12:31:58;100519.16;;;29.27;12.79
78667;BME280;67983;59.830;30.198;2023-04-25T12:34:25;100524.38;;;28.92;13.16
78667;BME280;67983;59.830;30.198;2023-04-25T12:36:53;100514.31;;;28.42;12.94
78667;BME280;67983;59.830;30.198;2023-04-25T12:39:23;100515.00;;;28.06;13.85
78667;BME280;67983;59.830;30.198;2023-04-25T12:41:51;100515.94;;;27.93;14.15
78667;BME280;67983;59.830;30.198;2023-04-25T12:44:19;100517.59;;;27.94;13.62
78667;BME280;67983;59.830;30.198;2023-04-25T12:46:47;100519.66;;;27.99;14.18
78667;BME280;67983;59.830;30.198;2023-04-25T12:49:16;100502.81;;;28.09;13.71
78667;BME280;67983;59.830;30.198;2023-04-25T12:51:43;100507.25;;;28.03;14.03
78667;BME280;67983;59.830;30.198;2023-04-25T12:54:10;100507.97;;;27.92;14.28
78667;BME280;67983;59.830;30.198;2023-04-25T12:56:38;100499.19;;;27.83;13.76
78667;BME280;67983;59.830;30.198;2023-04-25T12:59:05;100504.94;;;28.32;13.65
78667;BME280;67983;59.830;30.198;2023-04-25T13:01:32;100498.34;;;29.44;13.63
78667;BME280;67983;59.830;30.198;2023-04-25T13:03:59;100497.25;;;30.58;12.85
78667;BME280;67983;59.830;30.198;2023-04-25T13:06:31;100498.94;;;30.83;12.71